Time;durP1;ratioP1;P1;durP2;ratioP2;P2;SDS_P1;SDS_P2;PMS_P1;PMS_P2;Temp;Humidity;BMP_temperature;BMP_pressure;BME280_temperature;BME280_humidity;BME280_pressure;Samples;Min_cycle;Max_cycle;Signal;HPM_P1;HPM_P2
2023/04/03 00:01:17;;;;;;;5.95;2.40;;;;;;;12.53;75.43;99005.53;5107435;28;20081;-48
2023/04/03 00:03:42;;;;;;;3.72;2.45;;;;;;;12.45;74.86;99010.22;5091841;28;20035;-48
2023/04/03 00:06:11;;;;;;;6.32;3.25;;;;;;;12.47;74.98;99006.34;5091855;28;20032;-48
2023/04/03 00:08:37;;;;;;;5.25;3.03;;;;;;;12.62;74.24;99006.16;5091714;28;20515;-48
2023/04/03 00:11:03;;;;;;;3.65;2.40;;;;;;;12.70;74.12;98998.03;5091801;28;20099;-48
2023/04/03 00:13:29;;;;;;;5.78;2.75;;;;;;;12.86;74.19;99009.13;5091721;28;20020;-48
2023/04/03 00:15:55;;;;;;;7.35;2.75;;;;;;;12.99;72.39;99004.63;5107466;28;20028;-48
2023/04/03 00:18:21;;;;;;;4.40;2.28;;;;;;;13.08;72.18;99001.75;5107411;28;20443;-48
2023/04/03 00:20:47;;;;;;;4.40;2.70;;;;;;;13.14;72.11;98993.84;5091690;28;20108;-48
2023/04/03 00:23:13;;;;;;;4.40;2.40;;;;;;;13.29;70.68;98996.22;5107258;28;20051;-48
2023/04/03 00:25:38;;;;;;;5.55;2.95;;;;;;;13.20;68.43;98994.84;5091401;28;20153;-48
2023/04/03 00:28:04;;;;;;;4.90;2.50;;;;;;;12.89;68.80;98998.97;5091604;28;20042;-48
2023/04/03 00:30:31;;;;;;;6.55;2.53;;;;;;;12.69;69.32;98998.22;5107262;28;20043;-48
2023/04/03 00:32:57;;;;;;;3.63;2.50;;;;;;;12.70;69.77;98992.75;5091589;28;20091;-48
2023/04/03 00:35:23;;;;;;;4.47;2.50;;;;;;;12.77;68.99;98995.38;5091787;28;20103;-48
2023/04/03 00:37:51;;;;;;;4.65;2.20;;;;;;;12.74;68.60;98990.53;5095204;28;20401;-49
2023/04/03 00:40:17;;;;;;;4.85;3.10;;;;;;;12.84;69.36;98990.91;5111053;28;20508;-48
2023/04/03 00:42:45;;;;;;;3.78;2.78;;;;;;;12.88;68.36;98986.84;5077219;28;20020;-48
2023/04/03 00:45:23;;;;;;;13.45;3.53;;;;;;;12.89;68.84;98998.19;5110916;28;20066;-49
2023/04/03 00:47:49;;;;;;;8.23;3.20;;;;;;;12.91;68.04;98996.94;5077006;28;20024;-49
2023/04/03 00:50:15;;;;;;;8.32;2.90;;;;;;;12.92;68.08;98987.25;5110899;28;20101;-49
2023/04/03 00:52:41;;;;;;;4.28;2.72;;;;;;;12.99;67.57;98993.28;5110828;28;20032;-49
2023/04/03 00:55:08;;;;;;;10.15;3.45;;;;;;;12.96;67.46;98989.25;5093811;28;20028;-49
2023/04/03 00:57:35;;;;;;;9.18;2.95;;;;;;;12.92;67.20;98987.25;5093808;28;20053;-49
2023/04/03 01:00:10;;;;;;;5.75;2.63;;;;;;;12.95;66.92;98984.16;5110794;28;20107;-49
2023/04/03 01:02:36;;;;;;;9.55;3.58;;;;;;;12.91;66.86;98989.03;5093658;28;20084;-49
2023/04/03 01:05:02;;;;;;;7.95;3.33;;;;;;;12.84;66.19;98988.28;5094881;28;20031;-49
2023/04/03 01:07:30;;;;;;;4.95;3.05;;;;;;;12.72;66.98;98979.41;5110456;28;20024;-49
2023/04/03 01:09:59;;;;;;;5.43;3.00;;;;;;;12.69;66.94;98977.97;5094843;28;20485;-49
2023/04/03 01:12:31;;;;;;;6.30;3.00;;;;;;;12.72;66.22;98969.66;5095016;28;20028;-49
2023/04/03 01:15:09;;;;;;;7.28;3.65;;;;;;;12.67;66.97;98968.66;5110564;28;20016;-49
2023/04/03 01:17:38;;;;;;;5.57;3.00;;;;;;;12.71;67.41;98969.84;5093383;28;20050;-49
2023/04/03 01:20:16;;;;;;;7.78;3.03;;;;;;;12.80;66.93;98976.53;5110269;28;20378;-49
2023/04/03 01:22:56;;;;;;;5.63;3.10;;;;;;;12.76;67.12;98967.44;5110259;28;20039;-49
2023/04/03 01:25:22;;;;;;;9.82;3.38;;;;;;;12.78;66.76;98957.50;5094440;28;20089;-49
2023/04/03 01:27:48;;;;;;;5.75;2.88;;;;;;;12.72;67.24;98964.41;5093205;28;20401;-49
2023/04/03 01:30:17;;;;;;;7.05;2.80;;;;;;;12.75;67.32;98961.34;5110149;28;20028;-49
2023/04/03 01:32:42;;;;;;;4.40;2.60;;;;;;;12.75;66.74;98956.06;5110054;28;20024;-49
2023/04/03 01:35:10;;;;;;;5.82;2.55;;;;;;;12.79;66.47;98957.25;5110022;28;20024;-49
2023/04/03 01:37:36;;;;;;;8.50;2.60;;;;;;;12.82;65.24;98949.97;5094240;28;20382;-49
2023/04/03 01:40:02;;;;;;;3.38;2.03;;;;;;;12.71;65.04;98956.69;5094263;28;20039;-49
2023/04/03 01:42:29;;;;;;;9.30;2.47;;;;;;;12.69;65.19;98958.72;5094493;28;20024;-49
2023/04/03 01:44:55;;;;;;;8.10;2.63;;;;;;;12.77;64.94;98958.50;5094031;28;20034;-49
2023/04/03 01:47:22;;;;;;;5.28;2.17;;;;;;;12.82;64.58;98955.22;5093539;28;20397;-49
2023/04/03 01:49:47;;;;;;;10.75;2.50;;;;;;;12.79;64.50;98957.25;5092456;28;20097;-49
2023/04/03 01:52:13;;;;;;;5.25;2.08;;;;;;;12.82;64.36;98963.13;5092791;28;20067;-49
2023/04/03 01:54:39;;;;;;;6.80;2.47;;;;;;;12.74;64.61;98964.19;5075829;28;20062;-49
2023/04/03 01:57:04;;;;;;;5.15;2.40;;;;;;;12.77;64.90;98964.56;5109672;28;20102;-49
2023/04/03 01:59:30;;;;;;;9.02;2.83;;;;;;;12.82;64.82;98968.41;5109649;28;20038;-49
2023/04/03 02:01:56;;;;;;;7.00;2.65;;;;;;;12.89;64.72;98961.28;5092507;28;20509;-49
2023/04/03 02:04:22;;;;;;;8.63;2.90;;;;;;;12.87;64.71;98953.59;5109518;28;20111;-49
2023/04/03 02:06:48;;;;;;;6.25;2.20;;;;;;;12.96;64.49;98956.81;5092275;28;20024;-49
2023/04/03 02:09:14;;;;;;;8.05;2.60;;;;;;;12.89;63.55;98956.03;5109371;28;20513;-49
2023/04/03 02:11:40;;;;;;;2.83;2.03;;;;;;;12.77;64.13;98950.59;5109321;28;20028;-49
2023/04/03 02:14:06;;;;;;;3.85;1.98;;;;;;;12.84;64.04;98951.41;5093576;28;20028;-49
2023/04/03 02:16:32;;;;;;;3.72;1.88;;;;;;;12.97;63.50;98948.69;5092209;28;20117;-49
2023/04/03 02:18:57;;;;;;;6.57;1.90;;;;;;;12.99;62.95;98951.94;5075348;28;20493;-49
2023/04/03 02:21:23;;;;;;;6.22;1.85;;;;;;;12.87;62.74;98947.53;5093496;28;20032;-49
2023/04/03 02:23:50;;;;;;;2.90;1.77;;;;;;;12.83;62.88;98947.13;5109079;28;20038;-49
2023/04/03 02:26:16;;;;;;;3.70;2.08;;;;;;;12.78;62.81;98952.22;5093180;28;20088;-49
2023/04/03 02:28:42;;;;;;;7.07;2.28;;;;;;;12.84;62.96;98955.84;5091880;28;20114;-49
2023/04/03 02:31:10;;;;;;;2.03;1.75;;;;;;;12.90;62.91;98947.13;5091924;28;20482;-50
2023/04/03 02:33:36;;;;;;;3.60;2.10;;;;;;;12.84;63.01;98940.03;5108859;28;20030;-49
2023/04/03 02:36:04;;;;;;;5.38;1.95;;;;;;;12.77;63.27;98942.69;5093165;28;20032;-49
2023/04/03 02:38:30;;;;;;;5.40;2.20;;;;;;;12.77;63.12;98938.22;5093108;28;20436;-49
2023/04/03 02:41:08;;;;;;;4.30;1.90;;;;;;;12.93;63.52;98936.16;5108684;28;20024;-49
2023/04/03 02:43:35;;;;;;;7.65;2.15;;;;;;;13.06;62.68;98933.47;5092946;28;20062;-49
2023/04/03 02:46:00;;;;;;;4.43;2.05;;;;;;;13.18;62.73;98933.63;5091758;28;20031;-49
2023/04/03 02:48:26;;;;;;;8.18;2.10;;;;;;;13.16;62.16;98943.56;5092891;28;20069;-49
2023/04/03 02:50:52;;;;;;;3.83;1.70;;;;;;;13.13;61.96;98934.22;5108524;28;20032;-49
2023/04/03 02:53:18;;;;;;;3.40;2.30;;;;;;;13.09;62.12;98938.31;5108559;28;20032;-49
2023/04/03 02:55:45;;;;;;;6.63;2.00;;;;;;;13.09;62.18;98935.66;5092822;28;20032;-50
2023/04/03 02:58:11;;;;;;;2.83;1.95;;;;;;;13.11;62.63;98927.56;5092829;28;20024;-49
2023/04/03 03:00:37;;;;;;;3.38;1.90;;;;;;;13.20;61.78;98921.03;5091367;28;20016;-49
2023/04/03 03:03:03;;;;;;;4.47;2.30;;;;;;;13.18;62.16;98917.81;5108410;28;20036;-49
2023/04/03 03:05:29;;;;;;;8.75;2.33;;;;;;;13.15;62.14;98907.66;5108302;28;20036;-50
2023/04/03 03:07:55;;;;;;;5.63;2.40;;;;;;;12.83;62.09;98920.78;5108217;28;20026;-49
2023/04/03 03:10:22;;;;;;;9.35;2.08;;;;;;;12.78;63.13;98918.78;5092496;28;20110;-49
2023/04/03 03:12:47;;;;;;;3.75;1.73;;;;;;;12.79;63.19;98924.84;5092509;28;20470;-49
2023/04/03 03:15:13;;;;;;;5.65;3.00;;;;;;;12.58;62.44;98928.59;5108195;28;20048;-49
2023/04/03 03:17:39;;;;;;;5.57;1.83;;;;;;;12.15;64.45;98929.06;5091445;28;20095;-49
2023/04/03 03:20:05;;;;;;;3.33;2.22;;;;;;;12.27;65.02;98921.34;5092410;28;20539;-49
2023/04/03 03:22:31;;;;;;;10.82;2.38;;;;;;;12.38;64.94;98926.00;5107971;28;20080;-49
2023/04/03 03:24:57;;;;;;;6.28;2.20;;;;;;;12.54;64.72;98922.13;5107849;28;20055;-49
2023/04/03 03:27:23;;;;;;;4.40;2.47;;;;;;;12.59;64.05;98923.09;5092245;28;20036;-49
2023/04/03 03:29:50;;;;;;;6.82;2.10;;;;;;;12.43;63.51;98931.44;5092104;28;20058;-49
2023/04/03 03:32:16;;;;;;;4.85;2.05;;;;;;;12.26;64.94;98927.66;5107897;28;20492;-49
2023/04/03 03:34:42;;;;;;;4.30;2.47;;;;;;;12.36;64.91;98928.03;5092198;28;20031;-49
2023/04/03 03:37:07;;;;;;;4.88;2.13;;;;;;;12.44;64.93;98929.66;5107819;28;20028;-49
2023/04/03 03:39:33;;;;;;;1.80;1.60;;;;;;;12.47;64.60;98927.38;5092067;28;20024;-49
2023/04/03 03:41:58;;;;;;;4.32;2.00;;;;;;;12.46;64.11;98925.78;5091991;28;20455;-49
2023/04/03 03:44:24;;;;;;;4.70;2.30;;;;;;;12.43;64.20;98920.91;5107787;28;20458;-49
2023/04/03 03:46:50;;;;;;;8.48;2.85;;;;;;;12.46;64.65;98917.88;5091809;28;20438;-48
2023/04/03 03:49:16;;;;;;;3.70;2.35;;;;;;;12.38;64.17;98915.47;5107627;28;20120;-48
2023/04/03 03:51:41;;;;;;;6.55;2.50;;;;;;;12.27;66.60;98922.16;5107562;28;20513;-49
2023/04/03 03:54:07;;;;;;;17.58;8.95;;;;;;;12.14;69.49;98914.31;5091972;28;20441;-49
2023/04/03 03:56:34;;;;;;;5.00;2.78;;;;;;;12.03;72.62;98920.97;5107495;28;20493;-49
2023/04/03 03:59:00;;;;;;;8.60;2.92;;;;;;;11.87;74.48;98927.47;5091913;28;20020;-49
2023/04/03 04:01:26;;;;;;;7.38;3.25;;;;;;;11.69;75.93;98920.16;5091763;28;20489;-49
2023/04/03 04:03:53;;;;;;;9.07;3.03;;;;;;;11.65;78.61;98932.09;5107543;28;20162;-48
2023/04/03 04:06:19;;;;;;;8.35;3.33;;;;;;;11.51;79.47;98923.38;5092098;28;20421;-51
2023/04/03 04:08:45;;;;;;;5.22;2.90;;;;;;;11.42;82.16;98918.50;5107350;28;20037;-50
2023/04/03 04:11:10;;;;;;;4.35;3.40;;;;;;;11.36;83.48;98914.84;5091543;28;20028;-50
2023/04/03 04:13:36;;;;;;;4.15;2.90;;;;;;;11.38;84.18;98908.38;5111608;28;20031;-50
2023/04/03 04:16:02;;;;;;;4.45;4.05;;;;;;;11.33;83.88;98916.06;5095849;28;20016;-50
2023/04/03 04:18:27;;;;;;;8.95;2.80;;;;;;;11.23;83.83;98913.03;5111472;28;20504;-50
2023/04/03 04:20:53;;;;;;;12.32;4.03;;;;;;;11.22;84.87;98921.09;5095751;28;20121;-50
2023/04/03 04:23:19;;;;;;;7.20;3.60;;;;;;;11.17;85.08;98912.00;5111397;28;20024;-50
2023/04/03 04:25:46;;;;;;;6.38;3.97;;;;;;;11.11;86.36;98923.28;5110755;27;20078;-50
2023/04/03 04:28:12;;;;;;;8.10;2.80;;;;;;;11.19;87.69;98911.81;5111227;28;20051;-50
2023/04/03 04:30:38;;;;;;;10.65;3.30;;;;;;;11.27;88.41;98916.03;5077407;28;20409;-50
2023/04/03 04:33:03;;;;;;;4.30;3.28;;;;;;;11.24;87.49;98896.25;5095558;28;20069;-51
2023/04/03 04:35:29;;;;;;;7.53;2.92;;;;;;;11.10;85.87;98910.34;5077328;28;20030;-50
2023/04/03 04:37:55;;;;;;;3.97;3.20;;;;;;;10.95;86.35;98902.66;5095450;28;20020;-50
2023/04/03 04:40:21;;;;;;;3.85;3.08;;;;;;;10.93;85.66;98899.41;5111337;28;20106;-50
2023/04/03 04:42:47;;;;;;;6.38;3.90;;;;;;;10.97;86.95;98898.81;5095637;28;20091;-50
2023/04/03 04:45:13;;;;;;;14.98;3.70;;;;;;;11.05;87.48;98907.53;5111068;28;20527;-50
2023/04/03 04:47:38;;;;;;;4.60;3.00;;;;;;;11.03;86.20;98899.00;5095200;28;20074;-51
2023/04/03 04:50:05;;;;;;;7.55;3.10;;;;;;;11.00;86.15;98895.78;5095213;28;20027;-51
2023/04/03 04:52:30;;;;;;;5.00;3.33;;;;;;;11.07;85.67;98901.06;5110826;28;20043;-50
2023/04/03 04:54:57;;;;;;;5.50;2.85;;;;;;;11.12;84.21;98895.19;5095144;28;20024;-51
2023/04/03 04:57:23;;;;;;;8.48;2.78;;;;;;;11.12;82.74;98892.56;5095067;28;20024;-51
2023/04/03 04:59:48;;;;;;;3.13;2.63;;;;;;;11.11;81.08;98889.16;5110675;28;20110;-51
2023/04/03 05:02:15;;;;;;;10.13;3.33;;;;;;;11.17;82.24;98883.09;5110661;28;20043;-51
2023/04/03 05:04:41;;;;;;;8.35;3.17;;;;;;;11.33;81.84;98891.63;5110685;28;20028;-51
2023/04/03 05:07:06;;;;;;;9.70;2.63;;;;;;;11.36;80.57;98896.47;5094773;28;20394;-51
2023/04/03 05:09:32;;;;;;;3.70;2.45;;;;;;;11.41;79.99;98886.19;5093539;28;20020;-50
2023/04/03 05:11:58;;;;;;;3.88;2.05;;;;;;;11.47;77.25;98893.25;5094805;28;20075;-51
2023/04/03 05:14:23;;;;;;;3.55;2.70;;;;;;;11.48;78.97;98892.22;5110421;28;20027;-51
2023/04/03 05:16:52;;;;;;;6.28;2.30;;;;;;;11.53;79.78;98886.38;5110385;28;20028;-51
2023/04/03 05:19:19;;;;;;;4.95;2.92;;;;;;;11.57;82.03;98893.66;5094700;28;20024;-51
2023/04/03 05:21:45;;;;;;;9.32;3.03;;;;;;;11.46;82.67;98888.19;5094707;28;20031;-50
2023/04/03 05:24:10;;;;;;;4.25;2.88;;;;;;;11.36;84.56;98884.13;5109012;28;20028;-50
2023/04/03 05:26:36;;;;;;;6.75;2.92;;;;;;;11.21;81.25;98891.41;5094233;28;20047;-51
2023/04/03 05:29:02;;;;;;;7.60;3.05;;;;;;;11.05;83.32;98897.03;5094739;28;20032;-51
2023/04/03 05:31:29;;;;;;;2.80;2.40;;;;;;;10.99;84.44;98898.63;5110137;28;20085;-50
2023/04/03 05:33:55;;;;;;;3.28;2.70;;;;;;;11.02;85.30;98892.94;5093152;28;20035;-51
2023/04/03 05:36:21;;;;;;;10.63;2.83;;;;;;;11.06;83.78;98894.19;5094334;28;20027;-51
2023/04/03 05:38:47;;;;;;;4.28;2.75;;;;;;;11.10;83.05;98887.50;5109990;28;20012;-51
2023/04/03 05:41:13;;;;;;;5.43;2.85;;;;;;;11.24;83.01;98890.97;5094234;28;20028;-51
2023/04/03 05:43:39;;;;;;;5.43;2.70;;;;;;;11.42;82.00;98892.22;5109814;28;20028;-51
2023/04/03 05:46:13;;;;;;;4.32;3.08;;;;;;;11.58;82.52;98887.38;5094164;28;20031;-51
2023/04/03 05:48:39;;;;;;;5.32;2.97;;;;;;;11.46;82.95;98896.06;5094100;28;20046;-52
2023/04/03 05:51:07;;;;;;;3.78;2.88;;;;;;;11.53;84.10;98884.56;5109723;28;20535;-52
2023/04/03 05:53:38;;;;;;;9.00;3.45;;;;;;;11.62;84.02;98889.63;5093937;28;20028;-52
2023/04/03 05:56:04;;;;;;;4.03;2.83;;;;;;;11.73;83.05;98897.72;5093982;28;20031;-52
2023/04/03 05:58:30;;;;;;;3.50;3.15;;;;;;;11.80;81.48;98893.25;5094183;28;20409;-52
2023/04/03 06:00:56;;;;;;;5.88;2.80;;;;;;;11.94;81.33;98901.19;5093871;28;20027;-52
2023/04/03 06:03:22;;;;;;;12.80;4.20;;;;;;;12.09;82.06;98899.16;5093747;28;20056;-52
2023/04/03 06:05:48;;;;;;;3.72;2.70;;;;;;;12.15;81.23;98903.59;5093780;28;20074;-49
2023/04/03 06:08:14;;;;;;;3.00;2.70;;;;;;;11.99;81.05;98901.34;5109352;28;20132;-49
2023/04/03 06:10:40;;;;;;;5.70;3.20;;;;;;;11.97;81.22;98898.94;5109348;28;20028;-49
2023/04/03 06:13:06;;;;;;;5.47;3.05;;;;;;;12.07;81.92;98906.41;5093658;28;20392;-50
2023/04/03 06:15:32;;;;;;;4.25;2.80;;;;;;;12.18;80.80;98911.06;5093504;28;20028;-50
2023/04/03 06:17:57;;;;;;;4.28;3.38;;;;;;;12.22;79.58;98906.19;5109203;28;20027;-49
2023/04/03 06:20:23;;;;;;;5.00;2.72;;;;;;;12.17;80.37;98911.25;5093623;28;20500;-50
2023/04/03 06:22:49;;;;;;;4.70;2.83;;;;;;;12.27;80.78;98913.47;5093479;28;20020;-49
2023/04/03 06:25:17;;;;;;;9.27;2.92;;;;;;;12.34;80.38;98907.19;5109103;28;20398;-49
2023/04/03 06:27:42;;;;;;;6.25;3.22;;;;;;;12.30;80.24;98913.06;5093069;28;20036;-50
2023/04/03 06:30:08;;;;;;;4.22;3.45;;;;;;;12.34;79.90;98919.53;5092099;28;20049;-50
2023/04/03 06:32:34;;;;;;;6.72;3.83;;;;;;;12.40;79.91;98918.72;5109004;28;20028;-50
2023/04/03 06:35:00;;;;;;;9.43;3.65;;;;;;;12.48;79.67;98912.41;5108697;28;20545;-50
2023/04/03 06:37:27;;;;;;;7.85;3.55;;;;;;;12.54;79.76;98912.41;5108897;28;20026;-50
2023/04/03 06:39:53;;;;;;;9.23;4.03;;;;;;;12.54;79.55;98915.03;5093138;28;20028;-50
2023/04/03 06:42:20;;;;;;;11.27;3.97;;;;;;;12.40;79.94;98913.44;5108701;28;20031;-50
2023/04/03 06:44:45;;;;;;;14.77;3.92;;;;;;;12.47;80.94;98921.31;5108714;28;20432;-49
2023/04/03 06:47:15;;;;;;;7.85;3.75;;;;;;;12.59;81.05;98920.47;5092880;28;20055;-49
2023/04/03 06:49:41;;;;;;;11.60;3.92;;;;;;;12.62;80.31;98921.09;5092933;28;20052;-49
2023/04/03 06:52:07;;;;;;;5.75;4.47;;;;;;;12.68;80.48;98933.44;5091660;28;20393;-49
2023/04/03 06:54:33;;;;;;;10.82;4.07;;;;;;;12.73;80.52;98926.50;5092855;28;20027;-50
2023/04/03 06:56:59;;;;;;;6.53;3.60;;;;;;;12.73;80.69;98931.75;5108512;28;20020;-50
2023/04/03 06:59:26;;;;;;;12.45;4.20;;;;;;;12.83;80.93;98926.06;5091448;28;20035;-50
2023/04/03 07:01:51;;;;;;;7.32;3.53;;;;;;;12.96;80.14;98923.38;5108457;28;20032;-49
2023/04/03 07:04:19;;;;;;;10.35;4.38;;;;;;;13.12;79.07;98913.34;5092762;28;20520;-49
2023/04/03 07:06:46;;;;;;;5.15;4.15;;;;;;;13.29;78.21;98916.31;5092536;28;20108;-50
2023/04/03 07:09:13;;;;;;;6.05;5.45;;;;;;;13.33;77.18;98912.25;5108273;28;20400;-50
2023/04/03 07:11:39;;;;;;;4.60;4.13;;;;;;;13.29;76.35;98914.50;5091364;28;20035;-50
2023/04/03 07:14:07;;;;;;;8.98;5.10;;;;;;;13.23;76.18;98910.06;5092554;28;20024;-50
2023/04/03 07:16:34;;;;;;;9.75;5.05;;;;;;;13.11;72.86;98904.66;5108056;28;20024;-49
2023/04/03 07:19:01;;;;;;;8.95;5.43;;;;;;;13.02;73.25;98905.09;5108100;28;20020;-49
2023/04/03 07:21:27;;;;;;;6.72;5.32;;;;;;;12.92;72.23;98914.28;5092586;28;20068;-49
2023/04/03 07:23:54;;;;;;;9.48;5.15;;;;;;;12.84;74.09;98913.69;5108075;28;20509;-49
2023/04/03 07:26:23;;;;;;;10.77;5.35;;;;;;;12.89;73.39;98916.53;5090773;28;20059;-49
2023/04/03 07:28:49;;;;;;;12.00;5.25;;;;;;;12.91;72.76;98917.13;5092119;28;20027;-49
2023/04/03 07:31:16;;;;;;;8.27;5.05;;;;;;;12.87;72.65;98916.72;5073991;28;20024;-49
2023/04/03 07:33:43;;;;;;;7.65;5.47;;;;;;;12.88;72.55;98925.44;5090905;28;20032;-49
2023/04/03 07:36:10;;;;;;;8.18;5.32;;;;;;;12.92;71.96;98918.75;5092153;28;20389;-49
2023/04/03 07:38:36;;;;;;;6.60;6.00;;;;;;;12.93;69.86;98917.72;5107876;28;20026;-49
2023/04/03 07:41:03;;;;;;;7.65;6.05;;;;;;;12.88;71.01;98923.63;5107680;28;20038;-50
2023/04/03 07:43:29;;;;;;;8.10;6.00;;;;;;;12.89;70.94;98930.50;5092078;28;20117;-49
2023/04/03 07:45:55;;;;;;;8.75;5.85;;;;;;;12.80;70.07;98918.59;5106994;28;20504;-49
2023/04/03 07:48:26;;;;;;;10.80;6.65;;;;;;;12.71;69.76;98931.16;5091933;28;20047;-49
2023/04/03 07:50:51;;;;;;;7.78;5.85;;;;;;;12.75;69.03;98921.03;5091865;28;20027;-49
2023/04/03 07:53:18;;;;;;;7.18;6.47;;;;;;;12.71;68.27;98917.19;5090934;28;20040;-49
2023/04/03 07:55:47;;;;;;;7.68;6.38;;;;;;;12.63;68.25;98922.69;5107628;28;20031;-48
2023/04/03 07:58:16;;;;;;;12.25;7.25;;;;;;;12.70;69.07;98932.19;5107537;28;20106;-49
2023/04/03 08:00:42;;;;;;;8.27;6.88;;;;;;;12.79;68.11;98919.59;5091846;28;20106;-49
2023/04/03 08:03:10;;;;;;;7.75;6.63;;;;;;;12.74;67.69;98925.50;5107502;28;20151;-49
2023/04/03 08:05:44;;;;;;;10.18;6.10;;;;;;;12.66;67.86;98927.56;5091778;28;20455;-49
2023/04/03 08:08:12;;;;;;;9.23;6.85;;;;;;;12.61;68.11;98925.53;5107531;28;20058;-49
2023/04/03 08:10:38;;;;;;;9.98;6.38;;;;;;;12.73;68.05;98925.69;5091814;28;20020;-49
2023/04/03 08:13:04;;;;;;;8.07;6.90;;;;;;;12.68;67.50;98928.97;5107445;28;20020;-49
2023/04/03 08:15:31;;;;;;;14.65;7.25;;;;;;;12.71;67.18;98927.72;5107767;28;20032;-49
2023/04/03 08:17:58;;;;;;;10.60;7.18;;;;;;;12.66;67.35;98928.34;5091810;28;20023;-49
2023/04/03 08:20:23;;;;;;;9.27;7.00;;;;;;;12.70;67.43;98923.50;5092008;28;20378;-49
2023/04/03 08:22:49;;;;;;;16.90;7.63;;;;;;;12.81;66.15;98938.63;5091713;28;20073;-49
2023/04/03 08:25:15;;;;;;;9.32;6.45;;;;;;;12.87;64.97;98937.00;5107373;28;20052;-48
2023/04/03 08:27:41;;;;;;;7.25;5.93;;;;;;;12.96;64.39;98920.75;5107132;28;20073;-49
2023/04/03 08:30:08;;;;;;;8.88;6.07;;;;;;;13.02;64.42;98934.09;5107270;28;20023;-48
2023/04/03 08:32:35;;;;;;;15.20;7.25;;;;;;;13.11;64.97;98940.75;5091542;28;20400;-48
2023/04/03 08:35:02;;;;;;;8.02;7.07;;;;;;;13.19;64.57;98941.28;5091593;28;20497;-49
2023/04/03 08:37:28;;;;;;;13.52;6.60;;;;;;;13.11;63.70;98940.75;5107207;28;20489;-49
2023/04/03 08:39:54;;;;;;;10.13;7.18;;;;;;;13.03;64.64;98944.41;5107565;28;20028;-49
2023/04/03 08:42:38;;;;;;;12.23;6.78;;;;;;;13.30;64.04;98946.94;5091793;28;20027;-49
2023/04/03 08:45:10;;;;;;;9.32;6.78;;;;;;;13.61;63.50;98946.16;5091651;28;20024;-49
2023/04/03 08:47:42;;;;;;;7.85;6.55;;;;;;;13.95;62.53;98944.88;5091440;28;20016;-49
2023/04/03 08:50:17;;;;;;;10.05;6.00;;;;;;;14.09;61.36;98945.59;5090151;28;20028;-49
2023/04/03 08:52:51;;;;;;;11.18;6.38;;;;;;;13.93;59.83;98939.00;5091484;28;20028;-49
2023/04/03 08:55:34;;;;;;;9.13;6.57;;;;;;;13.80;61.09;98941.75;5091493;28;20026;-49
2023/04/03 08:58:06;;;;;;;8.80;6.30;;;;;;;13.88;60.59;98943.31;5093665;28;20020;-49
2023/04/03 09:00:58;;;;;;;6.57;5.78;;;;;;;13.98;60.72;98944.47;5095014;28;20524;-49
2023/04/03 09:03:24;;;;;;;7.90;5.32;;;;;;;14.11;59.79;98948.81;5092262;28;20044;-49
2023/04/03 09:05:57;;;;;;;7.80;5.57;;;;;;;14.16;59.45;98951.59;5094873;28;20024;-49
2023/04/03 09:08:55;;;;;;;10.63;5.78;;;;;;;14.21;59.82;98950.16;5094901;28;20031;-49
2023/04/03 09:11:22;;;;;;;10.82;5.28;;;;;;;14.22;59.50;98934.09;5055363;28;20398;-49
2023/04/03 09:13:57;;;;;;;12.48;5.82;;;;;;;14.33;59.32;98940.50;5072328;28;20028;-49
2023/04/03 09:16:53;;;;;;;6.47;4.68;;;;;;;14.54;58.89;98944.53;5072142;28;20041;-49
2023/04/03 09:19:28;;;;;;;5.07;4.55;;;;;;;14.68;57.09;98935.47;5072187;28;20056;-49
2023/04/03 09:21:57;;;;;;;5.47;4.93;;;;;;;14.51;56.99;98937.06;5072138;28;20060;-48
2023/04/03 09:24:23;;;;;;;10.55;5.10;;;;;;;14.33;57.11;98935.22;5055291;28;20519;-49
2023/04/03 09:26:59;;;;;;;12.15;7.13;;;;;;;14.27;58.11;98942.16;5055022;28;20048;-49
2023/04/03 09:29:26;;;;;;;23.27;18.35;;;;;;;14.24;58.09;98932.03;5071993;28;20047;-49
2023/04/03 09:32:01;;;;;;;15.70;6.88;;;;;;;14.22;58.43;98936.72;5071952;28;20148;-49
2023/04/03 09:34:35;;;;;;;11.73;5.38;;;;;;;14.18;58.37;98925.81;5072008;28;20059;-49
2023/04/03 09:37:06;;;;;;;9.02;5.40;;;;;;;14.37;57.03;98923.19;5055053;28;20024;-49
2023/04/03 09:39:48;;;;;;;15.63;5.40;;;;;;;14.43;56.90;98930.25;5071931;28;20493;-48
2023/04/03 09:42:22;;;;;;;9.05;4.65;;;;;;;14.39;57.34;98926.41;5071763;28;20032;-49
2023/04/03 09:45:01;;;;;;;7.47;4.85;;;;;;;14.32;56.13;98928.31;5071624;28;20024;-49
2023/04/03 09:47:33;;;;;;;7.38;5.53;;;;;;;14.25;56.77;98922.31;5080294;28;20038;-49
2023/04/03 09:50:14;;;;;;;6.35;4.90;;;;;;;14.29;56.55;98920.84;5094088;28;20081;-49
2023/04/03 09:52:47;;;;;;;8.05;5.95;;;;;;;14.19;56.35;98927.41;5109788;28;20027;-49
2023/04/03 09:55:21;;;;;;;7.25;4.70;;;;;;;14.18;56.85;98927.63;5109634;28;20508;-49
2023/04/03 09:57:48;;;;;;;8.85;5.35;;;;;;;14.26;55.76;98919.41;5094259;28;20016;-48
2023/04/03 10:00:26;;;;;;;11.32;5.60;;;;;;;14.13;56.52;98915.09;5093753;28;20042;-49
2023/04/03 10:02:55;;;;;;;7.90;5.53;;;;;;;14.03;56.36;98930.63;5094167;28;20078;-48
2023/04/03 10:05:36;;;;;;;9.23;6.05;;;;;;;13.85;56.69;98934.00;5093707;28;20450;-48
2023/04/03 10:08:10;;;;;;;7.43;5.53;;;;;;;13.77;57.27;98923.72;5109719;28;20054;-48
2023/04/03 10:10:36;;;;;;;8.90;5.57;;;;;;;13.79;57.35;98919.03;5093482;28;20032;-48
2023/04/03 10:13:11;;;;;;;7.57;5.47;;;;;;;13.88;57.16;98919.56;5093625;28;20023;-49
2023/04/03 10:15:46;;;;;;;7.43;6.60;;;;;;;14.18;57.07;98912.63;5093572;28;20030;-49
2023/04/03 10:18:39;;;;;;;8.98;6.20;;;;;;;14.23;56.23;98911.16;5093654;28;20024;-49
2023/04/03 10:21:37;;;;;;;9.85;6.25;;;;;;;14.26;55.99;98898.31;5093580;28;20438;-49
2023/04/03 10:24:18;;;;;;;5.82;4.95;;;;;;;14.15;55.65;98913.03;5075550;28;20118;-48
2023/04/03 10:27:08;;;;;;;5.82;5.22;;;;;;;14.10;56.11;98909.44;5093260;28;20045;-49
2023/04/03 10:29:34;;;;;;;9.40;6.20;;;;;;;14.03;56.01;98917.41;5109069;28;20032;-49
2023/04/03 10:32:11;;;;;;;8.05;5.28;;;;;;;14.01;57.03;98913.38;5109021;28;20027;-49
2023/04/03 10:34:46;;;;;;;7.20;4.90;;;;;;;14.23;56.53;98903.25;5108937;28;20035;-49
2023/04/03 10:37:36;;;;;;;9.82;5.47;;;;;;;14.38;55.74;98907.09;5108915;28;20401;-49
2023/04/03 10:40:32;;;;;;;8.50;5.35;;;;;;;14.38;55.41;98901.81;5093108;28;20040;-49
2023/04/03 10:43:09;;;;;;;;;;;;;;;14.24;55.42;98903.00;5109175;28;20107;-49
2023/04/03 10:46:00;;;;;;;9.18;5.05;;;;;;;14.06;55.62;98903.78;5092977;28;19919;-49
2023/04/03 10:48:35;;;;;;;8.25;5.00;;;;;;;13.99;56.68;98895.94;5092997;28;20066;-49
2023/04/03 10:51:10;;;;;;;7.53;4.97;;;;;;;14.14;56.59;98895.56;5093027;28;20067;-49
2023/04/03 10:53:47;;;;;;;5.93;4.88;;;;;;;14.18;55.86;98902.06;5108568;28;20120;-49
2023/04/03 10:56:24;;;;;;;8.60;5.43;;;;;;;13.95;55.31;98900.03;5092782;28;20051;-49
2023/04/03 10:58:58;;;;;;;5.63;4.88;;;;;;;13.79;55.93;98897.94;5108800;28;20020;-49
2023/04/03 11:01:31;;;;;;;5.43;4.93;;;;;;;13.65;55.83;98888.53;5091467;28;20081;-48
2023/04/03 11:04:00;;;;;;;7.63;4.68;;;;;;;13.43;55.88;98893.34;5108341;28;20297;-48
2023/04/03 11:06:38;;;;;;;8.60;4.57;;;;;;;13.15;56.90;98902.41;5092677;28;20052;-48
2023/04/03 11:09:27;;;;;;;4.97;4.47;;;;;;;13.16;56.81;98899.56;5092563;28;20099;-48
2023/04/03 11:12:03;;;;;;;8.43;5.28;;;;;;;13.13;57.30;98901.81;5090830;28;20048;-49
2023/04/03 11:14:35;;;;;;;8.10;4.55;;;;;;;13.16;57.74;98898.75;5092603;28;20031;-49
2023/04/03 11:17:21;;;;;;;6.15;4.60;;;;;;;13.20;57.34;98889.41;5092533;28;20485;-49
2023/04/03 11:20:18;;;;;;;10.35;4.85;;;;;;;13.17;57.00;98888.00;5092302;28;20056;-49
2023/04/03 11:23:01;;;;;;;9.02;4.25;;;;;;;13.22;57.47;98889.19;5091671;28;20028;-49
2023/04/03 11:25:30;;;;;;;6.50;4.80;;;;;;;13.36;56.90;98881.03;5092211;28;20020;-49
2023/04/03 11:28:04;;;;;;;11.38;5.25;;;;;;;13.20;56.80;98884.16;5074253;28;20016;-48
2023/04/03 11:30:53;;;;;;;7.43;4.80;;;;;;;12.93;56.90;98888.75;5092272;28;20020;-48
2023/04/03 11:33:55;;;;;;;13.10;4.88;;;;;;;12.76;57.86;98888.41;5107915;28;20028;-48
2023/04/03 11:37:02;;;;;;;8.15;4.55;;;;;;;12.83;57.78;98891.81;5107825;28;20027;-48
2023/04/03 11:39:41;;;;;;;10.90;4.63;;;;;;;13.12;56.49;98882.56;5091790;28;20565;-48
2023/04/03 11:42:29;;;;;;;6.78;4.57;;;;;;;13.29;56.37;98882.88;5092111;28;20023;-48